createdAt,value
2023-01-25T00:00:51.311Z,75.68
2023-01-25T00:03:18.573Z,75.76
2023-01-25T00:05:45.786Z,74.80
2023-01-25T00:08:12.902Z,74.63
2023-01-25T00:10:40.078Z,73.80
2023-01-25T00:13:07.159Z,74.39
2023-01-25T00:15:34.295Z,75.56
2023-01-25T00:18:01.426Z,76.19
2023-01-25T00:20:28.632Z,76.05
2023-01-25T00:22:55.722Z,74.75
2023-01-25T00:25:22.844Z,75.30
2023-01-25T00:27:49.950Z,74.91
2023-01-25T00:30:17.286Z,73.94
2023-01-25T00:33:03.371Z,73.92
2023-01-25T00:35:32.656Z,73.50
2023-01-25T00:38:03.325Z,75.00
2023-01-25T00:40:30.689Z,74.00
2023-01-25T00:43:00.924Z,73.09
2023-01-25T00:45:28.207Z,73.20
2023-01-25T00:47:56.552Z,73.49
2023-01-25T00:50:23.736Z,74.38
2023-01-25T00:52:50.912Z,72.33
2023-01-25T00:55:18.125Z,72.79
2023-01-25T00:57:45.263Z,72.92
2023-01-25T01:00:13.473Z,72.27
2023-01-25T01:02:40.756Z,72.06
2023-01-25T01:05:08.594Z,71.61
2023-01-25T01:07:35.914Z,71.26
2023-01-25T01:10:03.508Z,71.53
2023-01-25T01:12:30.932Z,73.16
2023-01-25T01:14:58.281Z,72.75
2023-01-25T01:17:25.495Z,72.76
2023-01-25T01:19:52.545Z,72.44
2023-01-25T01:22:19.614Z,72.69
2023-01-25T01:24:49.048Z,72.96
2023-01-25T01:27:16.262Z,72.56
2023-01-25T01:29:43.510Z,72.62
2023-01-25T01:32:10.929Z,72.50
2023-01-25T01:34:38.155Z,72.46
2023-01-25T01:37:05.283Z,71.59
2023-01-25T01:39:32.480Z,71.28
2023-01-25T01:41:59.736Z,70.93
2023-01-25T01:44:45.103Z,71.07
2023-01-25T01:47:29.209Z,70.80
2023-01-25T01:50:06.160Z,70.69
2023-01-25T01:52:37.915Z,70.69
2023-01-25T01:55:08.480Z,71.70
2023-01-25T01:57:41.701Z,72.43
2023-01-25T02:00:33.902Z,72.96
2023-01-25T02:03:02.156Z,72.07
2023-01-25T02:05:56.476Z,71.57
2023-01-25T02:08:25.073Z,72.29
2023-01-25T02:10:52.947Z,71.00
2023-01-25T02:13:21.668Z,72.54
2023-01-25T02:15:52.012Z,71.68
2023-01-25T02:18:24.569Z,71.67
2023-01-25T02:20:57.761Z,71.68
2023-01-25T02:23:33.450Z,71.05
2023-01-25T02:26:05.839Z,71.55
2023-01-25T02:28:48.803Z,71.06
2023-01-25T02:31:16.080Z,71.30
2023-01-25T02:33:43.227Z,71.65
2023-01-25T02:36:35.546Z,72.09
2023-01-25T02:39:08.047Z,71.52
2023-01-25T02:41:41.844Z,71.28
2023-01-25T02:44:21.461Z,71.40
2023-01-25T02:46:48.885Z,70.30
2023-01-25T02:49:17.056Z,70.53
2023-01-25T02:51:47.686Z,70.18
2023-01-25T02:54:16.839Z,70.15
2023-01-25T02:56:43.995Z,70.61
2023-01-25T02:59:13.510Z,71.32
2023-01-25T03:01:45.489Z,70.91
2023-01-25T03:04:13.142Z,70.11
2023-01-25T03:06:40.706Z,70.61
2023-01-25T03:09:10.263Z,70.26
2023-01-25T03:11:40.682Z,70.40
2023-01-25T03:14:07.856Z,70.20
2023-01-25T03:16:35.086Z,70.62
2023-01-25T03:19:03.521Z,72.05
2023-01-25T03:21:30.757Z,73.24
2023-01-25T03:24:00.768Z,72.87
2023-01-25T03:26:54.748Z,72.20
2023-01-25T03:29:26.643Z,72.59
2023-01-25T03:31:54.029Z,72.33
2023-01-25T03:34:21.318Z,71.85
2023-01-25T03:36:48.427Z,71.40
2023-01-25T03:39:15.776Z,72.18
2023-01-25T03:41:43.982Z,70.82
2023-01-25T03:44:13.819Z,71.98
2023-01-25T03:46:43.163Z,71.81
2023-01-25T03:49:12.052Z,71.74
2023-01-25T03:51:39.180Z,71.32
2023-01-25T03:54:08.508Z,70.26
2023-01-25T03:56:37.528Z,69.72
2023-01-25T03:59:12.709Z,70.35
2023-01-25T04:01:41.184Z,71.57
2023-01-25T04:04:08.379Z,73.48
2023-01-25T04:06:37.570Z,73.19
2023-01-25T04:09:05.530Z,72.81
2023-01-25T04:11:38.855Z,73.70
2023-01-25T04:14:06.393Z,74.29
2023-01-25T04:16:41.755Z,74.00
2023-01-25T04:19:24.483Z,73.80
2023-01-25T04:21:51.758Z,73.59
2023-01-25T04:24:19.233Z,73.20
2023-01-25T04:26:46.395Z,73.16
2023-01-25T04:29:14.103Z,72.54
2023-01-25T04:31:41.400Z,73.56
2023-01-25T04:34:08.586Z,73.45
2023-01-25T04:36:35.815Z,74.61
2023-01-25T04:39:03.251Z,75.00
2023-01-25T04:41:31.075Z,74.31
2023-01-25T04:43:58.455Z,75.38
2023-01-25T04:46:26.083Z,74.50
2023-01-25T04:48:55.047Z,76.07
2023-01-25T04:51:22.158Z,75.85
2023-01-25T04:53:49.282Z,76.61
2023-01-25T04:56:16.427Z,76.28
2023-01-25T04:58:53.906Z,76.46
2023-01-25T05:01:22.374Z,78.10
2023-01-25T05:03:51.247Z,78.42
2023-01-25T05:06:38.623Z,77.88
2023-01-25T05:09:06.815Z,78.31
2023-01-25T05:11:35.500Z,77.89
2023-01-25T05:14:07.031Z,78.17
2023-01-25T05:16:34.974Z,78.15
2023-01-25T05:19:03.392Z,77.80
2023-01-25T05:21:59.653Z,77.99
2023-01-25T05:24:45.372Z,77.29
2023-01-25T05:27:18.203Z,76.98
2023-01-25T05:29:55.358Z,75.50
2023-01-25T05:32:38.738Z,75.39
2023-01-25T05:35:07.402Z,75.33
2023-01-25T05:37:34.941Z,75.06
2023-01-25T05:40:06.388Z,77.04
2023-01-25T05:42:37.673Z,77.58
2023-01-25T05:45:09.417Z,77.29
2023-01-25T05:47:39.328Z,76.77
2023-01-25T05:50:08.791Z,76.07
2023-01-25T05:52:50.735Z,75.39
2023-01-25T05:55:18.201Z,75.86
2023-01-25T05:57:45.340Z,75.55
2023-01-25T06:00:12.859Z,76.05
2023-01-25T06:02:42.860Z,75.54
2023-01-25T06:05:16.813Z,75.86
2023-01-25T06:07:44.030Z,75.58
2023-01-25T06:10:11.973Z,74.68
2023-01-25T06:12:40.683Z,75.20
2023-01-25T06:15:08.891Z,75.42
2023-01-25T06:17:36.230Z,76.41
2023-01-25T06:20:17.086Z,75.65
2023-01-25T06:23:02.583Z,74.35
2023-01-25T06:25:29.916Z,74.22
2023-01-25T06:27:57.058Z,74.38
2023-01-25T06:30:24.189Z,72.80
2023-01-25T06:32:51.334Z,73.52
2023-01-25T06:35:18.468Z,72.54
2023-01-25T06:37:45.694Z,73.27
2023-01-25T06:40:13.000Z,73.50
2023-01-25T06:42:40.080Z,72.12
2023-01-25T06:45:08.203Z,72.37
2023-01-25T06:47:35.615Z,72.20
2023-01-25T06:50:02.754Z,72.75
2023-01-25T06:52:31.988Z,74.21
2023-01-25T06:54:59.135Z,74.91
2023-01-25T06:57:26.217Z,74.18
2023-01-25T06:59:53.283Z,73.94
2023-01-25T07:02:20.510Z,74.42
2023-01-25T07:04:47.883Z,75.14
2023-01-25T07:07:14.999Z,73.63
2023-01-25T07:09:42.244Z,74.79
2023-01-25T07:12:09.408Z,75.07
2023-01-25T07:14:36.666Z,74.83
2023-01-25T07:17:04.109Z,74.37
2023-01-25T07:19:31.473Z,74.51
2023-01-25T07:21:58.599Z,74.00
2023-01-25T07:24:27.410Z,73.32
2023-01-25T07:26:54.575Z,73.37
2023-01-25T07:29:22.581Z,73.41
2023-01-25T07:31:49.791Z,73.73
2023-01-25T07:34:17.009Z,73.37
2023-01-25T07:36:44.733Z,72.25
2023-01-25T07:39:12.131Z,73.32
2023-01-25T07:41:40.420Z,74.82
2023-01-25T07:44:12.452Z,74.49
2023-01-25T07:46:44.672Z,73.52
2023-01-25T07:49:11.757Z,73.07
2023-01-25T07:51:38.871Z,73.74
2023-01-25T07:54:06.108Z,73.96
2023-01-25T07:56:36.626Z,75.32
2023-01-25T07:59:04.433Z,75.10
2023-01-25T08:01:34.552Z,74.72
2023-01-25T08:04:03.018Z,73.85
2023-01-25T08:06:35.723Z,73.66
2023-01-25T08:09:19.921Z,74.60
2023-01-25T08:11:49.436Z,73.92
2023-01-25T08:14:16.877Z,76.54
2023-01-25T08:16:44.110Z,75.61
2023-01-25T08:19:11.955Z,75.03
2023-01-25T08:21:39.918Z,74.58
2023-01-25T08:24:08.251Z,73.35
2023-01-25T08:26:36.475Z,71.32
2023-01-25T08:29:04.621Z,72.23
2023-01-25T08:31:35.063Z,72.91
2023-01-25T08:34:02.778Z,74.10
2023-01-25T08:36:30.225Z,74.41
2023-01-25T08:39:02.928Z,76.30
2023-01-25T08:41:31.904Z,76.99
2023-01-25T08:43:59.648Z,75.54
2023-01-25T08:46:31.363Z,74.06
2023-01-25T08:49:01.214Z,75.29
2023-01-25T08:51:28.852Z,74.44
2023-01-25T08:53:55.990Z,75.08
2023-01-25T08:56:23.094Z,75.53
2023-01-25T08:58:51.245Z,75.16
2023-01-25T09:01:20.178Z,74.97
2023-01-25T09:03:51.779Z,72.53
2023-01-25T09:06:20.407Z,71.96
2023-01-25T09:08:48.437Z,72.60
2023-01-25T09:11:18.653Z,70.73
2023-01-25T09:13:46.400Z,71.25
2023-01-25T09:16:16.159Z,69.67
2023-01-25T09:18:44.654Z,71.68
2023-01-25T09:21:17.108Z,73.20
2023-01-25T09:23:51.338Z,71.06
2023-01-25T09:26:25.804Z,71.56
2023-01-25T09:28:54.783Z,71.73
2023-01-25T09:31:23.848Z,72.26
2023-01-25T09:34:14.665Z,74.51
2023-01-25T09:36:41.845Z,75.82
2023-01-25T09:39:12.460Z,74.58
2023-01-25T09:41:42.552Z,73.93
2023-01-25T09:44:22.678Z,72.58
2023-01-25T09:47:04.177Z,73.24
2023-01-25T09:49:59.480Z,71.84
2023-01-25T09:53:11.306Z,72.05
2023-01-25T09:55:39.677Z,70.23
2023-01-25T09:58:22.092Z,72.39
2023-01-25T10:00:55.050Z,73.24
2023-01-25T10:03:32.551Z,73.84
2023-01-25T10:06:02.782Z,73.54
2023-01-25T10:08:43.032Z,72.73
2023-01-25T10:11:22.015Z,72.27
2023-01-25T10:13:49.436Z,73.33
2023-01-25T10:16:26.074Z,74.49
2023-01-25T10:19:03.699Z,75.29
2023-01-25T10:21:49.209Z,75.85
2023-01-25T10:24:34.994Z,76.51
2023-01-25T10:27:13.980Z,76.17
2023-01-25T10:29:41.416Z,75.67
2023-01-25T10:32:35.845Z,75.95
2023-01-25T10:35:29.431Z,77.20
2023-01-25T10:38:07.188Z,78.58
2023-01-25T10:40:46.547Z,76.54
2023-01-25T10:43:19.139Z,77.77
2023-01-25T10:45:48.193Z,76.95
2023-01-25T10:48:22.454Z,76.88
2023-01-25T10:50:54.998Z,77.93
2023-01-25T10:53:30.103Z,76.06
2023-01-25T10:56:02.378Z,76.09
2023-01-25T10:58:30.805Z,73.68
2023-01-25T11:00:58.199Z,74.06
2023-01-25T11:03:35.347Z,73.18
2023-01-25T11:06:02.598Z,72.67
2023-01-25T11:08:44.660Z,72.44
2023-01-25T11:11:32.858Z,73.27
2023-01-25T11:14:00.540Z,71.77
2023-01-25T11:16:34.236Z,72.73
2023-01-25T11:19:02.950Z,71.20
2023-01-25T11:21:33.510Z,70.76
2023-01-25T11:24:18.926Z,70.25
2023-01-25T11:26:46.731Z,70.47
2023-01-25T11:29:17.961Z,69.24
2023-01-25T11:31:51.772Z,68.56
2023-01-25T11:34:22.275Z,69.04
2023-01-25T11:37:18.524Z,69.86
2023-01-25T11:40:13.517Z,69.87
2023-01-25T11:43:09.517Z,68.53
2023-01-25T11:46:27.189Z,68.22
2023-01-25T11:49:26.451Z,68.02
2023-01-25T11:51:56.742Z,67.57
2023-01-25T11:54:51.482Z,68.69
2023-01-25T11:57:45.964Z,66.77
2023-01-25T12:00:26.915Z,65.62
2023-01-25T12:03:18.852Z,66.62
2023-01-25T12:06:01.219Z,67.46
2023-01-25T12:08:46.723Z,69.81
2023-01-25T12:11:54.651Z,70.44
2023-01-25T12:14:41.905Z,70.97
2023-01-25T12:17:11.927Z,70.98
2023-01-25T12:20:06.969Z,70.21
2023-01-25T12:22:52.668Z,69.06
2023-01-25T12:25:41.131Z,69.43
2023-01-25T12:28:08.361Z,68.57
2023-01-25T12:31:02.693Z,67.64
2023-01-25T12:33:39.812Z,68.44
2023-01-25T12:36:23.267Z,69.04
2023-01-25T12:39:13.790Z,67.62
2023-01-25T12:41:50.413Z,67.73
2023-01-25T12:44:24.741Z,68.28
2023-01-25T12:47:18.835Z,67.69
2023-01-25T12:49:55.469Z,67.66
2023-01-25T12:52:32.338Z,67.67
2023-01-25T12:55:05.440Z,67.43
2023-01-25T12:57:42.020Z,69.03
2023-01-25T13:00:50.656Z,70.88
2023-01-25T13:03:50.490Z,71.58
2023-01-25T13:06:39.667Z,70.05
2023-01-25T13:09:33.878Z,68.57
2023-01-25T13:12:04.252Z,69.10
2023-01-25T13:14:39.458Z,70.61
2023-01-25T13:17:35.652Z,71.07
2023-01-25T13:20:41.742Z,69.71
2023-01-25T13:23:47.619Z,68.97
2023-01-25T13:26:28.456Z,68.26
2023-01-25T13:29:01.219Z,67.40
2023-01-25T13:31:51.685Z,69.75
2023-01-25T13:34:35.768Z,69.18
2023-01-25T13:37:19.401Z,69.46
2023-01-25T13:39:46.529Z,68.12
2023-01-25T13:42:13.611Z,68.93
2023-01-25T13:44:47.157Z,68.95
2023-01-25T13:47:20.259Z,69.54
2023-01-25T13:49:54.498Z,70.01
2023-01-25T13:52:24.767Z,70.12
2023-01-25T13:54:56.823Z,70.77
2023-01-25T13:57:29.749Z,69.83
2023-01-25T14:00:10.689Z,69.23
2023-01-25T14:02:56.962Z,69.09
2023-01-25T14:05:26.142Z,69.10
2023-01-25T14:07:56.659Z,69.19
2023-01-25T14:10:27.907Z,69.13
2023-01-25T14:13:02.513Z,70.08
2023-01-25T14:15:33.176Z,69.71
2023-01-25T14:18:16.441Z,69.42
2023-01-25T14:20:45.326Z,68.44
2023-01-25T14:23:27.192Z,69.81
2023-01-25T14:25:56.002Z,69.36
2023-01-25T14:28:23.157Z,70.97
2023-01-25T14:30:55.952Z,72.18
2023-01-25T14:33:32.104Z,71.13
2023-01-25T14:36:24.432Z,72.28
2023-01-25T14:38:53.160Z,71.61
2023-01-25T14:41:28.707Z,71.99
2023-01-25T14:43:58.236Z,72.51
2023-01-25T14:46:28.754Z,72.05
2023-01-25T14:49:26.462Z,70.51
2023-01-25T14:52:05.624Z,73.01
2023-01-25T14:54:35.633Z,73.48
2023-01-25T14:57:05.856Z,72.17
2023-01-25T14:59:39.953Z,73.73
2023-01-25T15:02:27.066Z,74.69
2023-01-25T15:04:59.169Z,73.98
2023-01-25T15:07:49.568Z,74.21
2023-01-25T15:10:19.820Z,73.88
2023-01-25T15:13:14.165Z,75.95
2023-01-25T15:15:58.954Z,76.34
2023-01-25T15:18:53.452Z,74.60
2023-01-25T15:21:24.698Z,74.71
2023-01-25T15:23:53.167Z,75.29
2023-01-25T15:26:29.004Z,76.64
2023-01-25T15:29:17.731Z,76.03
2023-01-25T15:31:45.150Z,75.71
2023-01-25T15:34:38.620Z,76.12
2023-01-25T15:37:05.671Z,75.45
2023-01-25T15:39:32.875Z,75.87
2023-01-25T15:42:00.053Z,74.87
2023-01-25T15:44:27.195Z,74.75
2023-01-25T15:46:54.530Z,75.79
2023-01-25T15:49:26.795Z,75.61
2023-01-25T15:51:55.276Z,75.48
2023-01-25T15:54:22.596Z,76.69
2023-01-25T15:56:55.610Z,77.65
2023-01-25T15:59:23.033Z,76.91
2023-01-25T16:01:50.236Z,74.58
2023-01-25T16:04:17.366Z,74.43
2023-01-25T16:06:50.219Z,76.28
2023-01-25T16:09:20.233Z,79.78
2023-01-25T16:11:51.235Z,79.75
2023-01-25T16:14:18.325Z,79.25
2023-01-25T16:16:49.191Z,79.11
2023-01-25T16:19:20.143Z,77.91
2023-01-25T16:21:47.364Z,78.46
2023-01-25T16:24:14.993Z,76.77
2023-01-25T16:26:50.819Z,76.96
2023-01-25T16:29:17.945Z,76.48
2023-01-25T16:31:45.244Z,78.69
2023-01-25T16:34:12.738Z,79.69
2023-01-25T16:36:39.910Z,79.20
2023-01-25T16:39:17.562Z,77.91
2023-01-25T16:41:44.637Z,76.88
2023-01-25T16:44:11.796Z,77.07
2023-01-25T16:46:38.873Z,77.97
2023-01-25T16:49:09.121Z,78.18
2023-01-25T16:51:37.581Z,77.32
2023-01-25T16:54:04.707Z,77.43
2023-01-25T16:56:33.405Z,77.21
2023-01-25T16:59:03.821Z,76.75
2023-01-25T17:01:31.565Z,76.67
2023-01-25T17:03:58.845Z,77.09
2023-01-25T17:06:29.410Z,77.16
2023-01-25T17:09:00.345Z,77.57
2023-01-25T17:11:27.715Z,77.07
2023-01-25T17:13:57.699Z,76.44
2023-01-25T17:16:26.602Z,78.00
2023-01-25T17:19:00.099Z,77.88
2023-01-25T17:21:27.765Z,76.86
2023-01-25T17:23:57.077Z,76.40
2023-01-25T17:26:24.699Z,76.20
2023-01-25T17:28:52.762Z,76.18
2023-01-25T17:31:22.947Z,76.73
2023-01-25T17:33:50.438Z,77.01
2023-01-25T17:36:17.541Z,77.56
2023-01-25T17:38:44.911Z,78.33
2023-01-25T17:41:14.854Z,79.23
2023-01-25T17:43:42.369Z,79.15
2023-01-25T17:46:25.729Z,78.67
2023-01-25T17:48:53.682Z,79.03
2023-01-25T17:51:22.860Z,77.00
2023-01-25T17:53:51.876Z,78.00
2023-01-25T17:56:21.773Z,78.34
2023-01-25T17:58:49.173Z,79.48
2023-01-25T18:01:19.342Z,80.77
2023-01-25T18:03:47.672Z,79.75
2023-01-25T18:06:17.062Z,78.59
2023-01-25T18:08:48.290Z,78.46
2023-01-25T18:11:21.853Z,77.73
2023-01-25T18:13:54.427Z,78.08
2023-01-25T18:16:22.791Z,77.69
2023-01-25T18:18:52.340Z,77.72
2023-01-25T18:21:25.947Z,78.18
2023-01-25T18:23:55.831Z,77.53
2023-01-25T18:26:31.966Z,75.91
2023-01-25T18:29:26.190Z,76.37
2023-01-25T18:31:53.559Z,75.44
2023-01-25T18:34:20.708Z,74.58
2023-01-25T18:36:48.664Z,77.19
2023-01-25T18:39:15.770Z,76.50
2023-01-25T18:41:44.677Z,76.55
2023-01-25T18:44:11.891Z,75.92
2023-01-25T18:46:40.671Z,77.13
2023-01-25T18:49:07.788Z,76.65
2023-01-25T18:51:38.945Z,75.66
2023-01-25T18:54:11.475Z,75.61
2023-01-25T18:56:38.569Z,76.38
2023-01-25T18:59:06.148Z,76.95
2023-01-25T19:01:33.406Z,77.23
2023-01-25T19:04:00.573Z,76.00
2023-01-25T19:06:27.695Z,78.87
2023-01-25T19:08:56.597Z,79.77
2023-01-25T19:11:24.073Z,80.88
2023-01-25T19:13:51.203Z,79.93
2023-01-25T19:16:21.364Z,77.18
2023-01-25T19:18:50.538Z,75.52
2023-01-25T19:21:20.979Z,74.94
2023-01-25T19:23:48.577Z,76.82
2023-01-25T19:26:18.191Z,77.10
2023-01-25T19:28:46.269Z,76.36
2023-01-25T19:31:18.523Z,75.59
2023-01-25T19:33:46.141Z,75.81
2023-01-25T19:36:16.781Z,75.80
2023-01-25T19:38:45.395Z,76.14
2023-01-25T19:41:15.305Z,75.12
2023-01-25T19:43:43.638Z,75.30
2023-01-25T19:46:16.073Z,75.64
2023-01-25T19:48:44.586Z,76.00
2023-01-25T19:51:14.379Z,76.27
2023-01-25T19:53:46.936Z,75.94
2023-01-25T19:56:16.403Z,76.56
2023-01-25T19:58:49.835Z,76.60
2023-01-25T20:01:22.174Z,75.86
2023-01-25T20:03:49.678Z,76.21
2023-01-25T20:06:18.594Z,75.37
2023-01-25T20:08:47.083Z,76.55
2023-01-25T20:11:21.776Z,77.14
2023-01-25T20:13:51.219Z,75.79
2023-01-25T20:16:19.376Z,76.50
2023-01-25T20:18:48.298Z,76.58
2023-01-25T20:21:21.185Z,76.30
2023-01-25T20:23:50.949Z,77.10
2023-01-25T20:26:23.971Z,76.80
2023-01-25T20:28:52.728Z,76.13
2023-01-25T20:31:19.950Z,77.24
2023-01-25T20:33:48.028Z,77.08
2023-01-25T20:36:15.224Z,78.02
2023-01-25T20:38:42.757Z,77.44
2023-01-25T20:41:15.704Z,77.16
2023-01-25T20:43:50.558Z,76.83
2023-01-25T20:46:19.338Z,75.55
2023-01-25T20:48:47.117Z,74.91
2023-01-25T20:51:17.093Z,76.74
2023-01-25T20:53:46.103Z,77.31
2023-01-25T20:56:14.225Z,78.62
2023-01-25T20:58:42.519Z,78.08
2023-01-25T21:01:18.555Z,78.86
2023-01-25T21:03:46.024Z,78.99
2023-01-25T21:06:13.861Z,79.19
2023-01-25T21:08:41.209Z,78.98
2023-01-25T21:11:09.409Z,78.39
2023-01-25T21:13:36.503Z,78.67
2023-01-25T21:16:05.326Z,78.35
2023-01-25T21:18:40.839Z,77.50
2023-01-25T21:21:09.515Z,77.25
2023-01-25T21:23:39.246Z,79.56
2023-01-25T21:26:07.462Z,80.18
2023-01-25T21:28:35.331Z,80.41
2023-01-25T21:31:19.302Z,78.82
2023-01-25T21:33:48.119Z,77.82
2023-01-25T21:36:16.731Z,78.61
2023-01-25T21:38:48.978Z,78.11
2023-01-25T21:41:20.206Z,77.42
2023-01-25T21:44:07.114Z,78.12
2023-01-25T21:46:34.816Z,78.11
2023-01-25T21:49:23.566Z,78.43
2023-01-25T21:51:52.586Z,78.37
2023-01-25T21:54:23.934Z,78.02
2023-01-25T21:56:53.385Z,79.42
2023-01-25T21:59:21.736Z,79.52
2023-01-25T22:01:49.395Z,78.43
2023-01-25T22:04:18.004Z,79.45
2023-01-25T22:06:45.579Z,78.54
2023-01-25T22:09:13.796Z,77.96
2023-01-25T22:11:41.183Z,78.50
2023-01-25T22:14:08.289Z,80.86
2023-01-25T22:16:35.514Z,79.16
2023-01-25T22:19:02.702Z,78.75
2023-01-25T22:21:32.243Z,80.04
2023-01-25T22:24:01.754Z,79.93
2023-01-25T22:27:24.290Z,79.95
2023-01-25T22:29:51.445Z,79.95
2023-01-25T22:32:18.588Z,81.74
2023-01-25T22:34:45.647Z,81.18
2023-01-25T22:37:12.845Z,80.74
2023-01-25T22:39:40.157Z,79.85
2023-01-25T22:42:07.401Z,80.85
2023-01-25T22:44:34.480Z,80.16
2023-01-25T22:47:01.655Z,79.43
2023-01-25T22:49:28.844Z,78.73
2023-01-25T22:51:56.009Z,79.84
2023-01-25T22:54:23.118Z,79.41
2023-01-25T22:56:50.203Z,77.98
2023-01-25T22:59:19.187Z,78.46
2023-01-25T23:01:46.461Z,79.79
2023-01-25T23:04:13.627Z,79.38
2023-01-25T23:06:40.791Z,79.74
2023-01-25T23:09:08.018Z,79.10
2023-01-25T23:11:37.773Z,78.89
2023-01-25T23:14:30.720Z,78.73
2023-01-25T23:17:17.788Z,78.25
2023-01-25T23:19:45.173Z,77.75
2023-01-25T23:22:12.445Z,77.08
2023-01-25T23:24:39.609Z,76.78
2023-01-25T23:27:06.838Z,77.37
2023-01-25T23:29:33.902Z,77.43
2023-01-25T23:32:01.043Z,78.12
2023-01-25T23:34:28.244Z,77.66
2023-01-25T23:36:55.373Z,77.50
2023-01-25T23:39:23.727Z,77.84
2023-01-25T23:41:52.471Z,77.11
2023-01-25T23:44:19.550Z,77.21
2023-01-25T23:46:46.890Z,77.76
2023-01-25T23:49:14.324Z,78.01
2023-01-25T23:51:41.448Z,78.17
2023-01-25T23:54:08.648Z,78.65
2023-01-25T23:56:35.720Z,78.51
2023-01-25T23:59:02.802Z,78.12
